Item Display Status Humidity-temperature Sensor

Elevation Above Sea Level: 3 m

 

Deployed Sensor

  • Serial Number: 20351076
  • NDBC Property Number: 43309
  • Start Date: 3/30/2020 (09:07:55 Z)
  • End Date: Currently Active
Relative Humidity [%]     6 entries per hour
Showing data from 7/10/2021 (16:00:00 Z) to 7/9/2021 (00:00:01 Z)
Previous Next [ Day | 3-Days | 7-Days ]
First Last
Prev [ Day | 3-Days | 7-Days ] Next
First Last

Start Time:     :
End Time:     :     
Time (in GMT) :00 :50 :40 :30 :20 :10
Previous Next [ Day | 3-Days | 7-Days ]
First Last
Prev [ Day | 3-Days | 7-Days ] Next
First Last


123 => good data
MM => data is determined as missing
-- => data not received/configured
Back to Top Back to Top
7/10/2021 16:00 to 15:10 89.84 90.46 90.07 89.84 89.09 89.40
7/10/2021 15:00 to 14:10 89.80 90.75 90.38 90.90 90.73 90.13
7/10/2021 14:00 to 13:10 90.23 90.48 89.86 90.23 89.94 89.57
7/10/2021 13:00 to 12:10 90.21 91.31 91.60 92.47 92.50 90.58
7/10/2021 12:00 to 11:10 91.08 91.39 90.90 90.44 90.54 91.31
7/10/2021 11:00 to 10:10 91.48 92.00 91.87 91.83 91.25 91.02
7/10/2021 10:00 to 9:10 91.54 91.06 90.90 91.21 91.25 91.27
7/10/2021 09:00 to 8:10 91.58 92.23 91.89 91.71 91.60 91.08
7/10/2021 08:00 to 7:10 91.48 91.79 91.60 91.77 91.75 91.29
7/10/2021 07:00 to 6:10 91.23 91.21 91.31 91.62 91.96 92.62
7/10/2021 06:00 to 5:10 92.20 91.96 91.77 91.64 92.14 92.74
7/10/2021 05:00 to 4:10 92.20 92.52 92.45 92.16 92.23 92.60
7/10/2021 04:00 to 3:10 91.85 91.75 92.08 92.41 92.62 93.16
7/10/2021 03:00 to 2:10 93.10 92.99 93.16 93.06 93.31 93.91
7/10/2021 02:00 to 1:10 93.45 93.49 93.70 93.80 93.55 93.08
7/10/2021 01:00 to 0:10 92.74 92.66 92.97 93.16 92.81 93.16
7/10/2021 00:00 to 23:10 93.08 92.91 93.14 93.51 93.58 93.18
7/9/2021 23:00 to 22:10 93.41 93.35 93.49 93.78 94.07 94.43
7/9/2021 22:00 to 21:10 94.37 94.39 94.32 94.34 94.61 94.55
7/9/2021 21:00 to 20:10 94.16 93.83 93.76 93.24 92.70 92.29
7/9/2021 20:00 to 19:10 91.89 91.64 91.87 91.81 91.33 91.21
7/9/2021 19:00 to 18:10 91.33 92.10 92.79 93.12 93.39 92.91
7/9/2021 18:00 to 17:10 92.35 92.00 91.91 92.16 92.04 91.81
7/9/2021 17:00 to 16:10 91.71 91.54 91.50 92.04 92.04 92.14
7/9/2021 16:00 to 15:10 91.87 92.08 92.06 91.71 91.66 92.81
7/9/2021 15:00 to 14:10 92.20 90.04 87.47 86.70 86.64 88.26
7/9/2021 14:00 to 13:10 86.55 90.98 92.97 94.43 95.09 94.82
7/9/2021 13:00 to 12:10 94.95 94.18 91.96 91.02 90.73 90.63
7/9/2021 12:00 to 11:10 91.12 91.12 91.89 93.16 93.39 93.91
7/9/2021 11:00 to 10:10 94.16 94.16 93.43 93.20 92.99 92.66
7/9/2021 10:00 to 9:10 93.37 93.74 93.87 93.39 93.37 93.76
7/9/2021 09:00 to 8:10 93.43 93.45 93.80 93.64 93.26 93.55
7/9/2021 08:00 to 7:10 93.37 92.93 92.54 92.83 93.04 92.93
7/9/2021 07:00 to 6:10 93.01 93.16 93.72 93.62 92.89 92.89
7/9/2021 06:00 to 5:10 92.99 93.80 93.37 93.51 93.12 92.50
7/9/2021 05:00 to 4:10 92.12 92.27 92.12 91.87 91.37 91.02
7/9/2021 04:00 to 3:10 91.17 90.50 90.48 90.17 90.98 90.75
7/9/2021 03:00 to 2:10 90.52 90.44 90.09 90.52 90.65 90.34
7/9/2021 02:00 to 1:10 90.48 90.61 90.48 90.50 90.81 90.21
7/9/2021 01:00 to 0:10 89.57 89.34 89.82 91.56 90.77 90.56

 

 

 

Air Temperature [°C]     6 entries per hour
Showing data from 7/10/2021 (16:00:00 Z) to 7/9/2021 (00:00:01 Z)
Previous Next [ Day | 3-Days | 7-Days ]
First Last
Prev [ Day | 3-Days | 7-Days ] Next
First Last

Start Time:     :
End Time:     :     
Time (in GMT) :00 :50 :40 :30 :20 :10
Previous Next [ Day | 3-Days | 7-Days ]
First Last
Prev [ Day | 3-Days | 7-Days ] Next
First Last


123 => good data
MM => data is determined as missing
-- => data not received/configured
Back to Top Back to Top
7/10/2021 16:00 to 15:10 24.25 24.32 24.38 24.33 24.37 24.31
7/10/2021 15:00 to 14:10 24.21 24.31 24.21 24.22 24.25 24.18
7/10/2021 14:00 to 13:10 24.18 24.17 24.09 24.15 24.22 24.03
7/10/2021 13:00 to 12:10 24.02 24.11 24.07 24.06 24.06 24.04
7/10/2021 12:00 to 11:10 24.08 23.95 24.14 24.03 24.02 23.96
7/10/2021 11:00 to 10:10 23.98 24.12 23.97 24.00 24.11 23.98
7/10/2021 10:00 to 9:10 23.91 23.97 23.99 24.10 24.05 23.96
7/10/2021 09:00 to 8:10 23.99 23.96 24.13 23.98 24.12 24.02
7/10/2021 08:00 to 7:10 24.04 24.08 24.09 24.11 24.03 24.14
7/10/2021 07:00 to 6:10 24.07 24.17 24.10 24.10 24.16 24.10
7/10/2021 06:00 to 5:10 24.17 24.20 24.25 24.16 24.10 24.27
7/10/2021 05:00 to 4:10 24.15 24.05 24.25 24.15 24.11 24.23
7/10/2021 04:00 to 3:10 24.22 24.22 24.27 24.17 24.25 24.23
7/10/2021 03:00 to 2:10 24.28 24.21 24.29 24.30 24.21 24.29
7/10/2021 02:00 to 1:10 24.31 24.24 24.27 24.31 24.42 24.34
7/10/2021 01:00 to 0:10 24.42 24.45 24.35 24.53 24.39 24.53
7/10/2021 00:00 to 23:10 24.53 24.49 24.48 24.44 24.49 24.51
7/9/2021 23:00 to 22:10 24.51 24.46 24.48 24.48 24.36 24.41
7/9/2021 22:00 to 21:10 24.39 24.38 24.43 24.36 24.34 24.32
7/9/2021 21:00 to 20:10 24.37 24.38 24.39 24.34 24.31 24.37
7/9/2021 20:00 to 19:10 24.37 24.37 24.32 24.38 24.52 24.36
7/9/2021 19:00 to 18:10 24.39 24.35 24.41 24.28 24.43 24.43
7/9/2021 18:00 to 17:10 24.46 24.37 24.39 24.32 24.32 24.27
7/9/2021 17:00 to 16:10 24.36 24.36 24.28 24.09 24.13 24.20
7/9/2021 16:00 to 15:10 24.12 24.01 24.10 24.08 24.13 24.09
7/9/2021 15:00 to 14:10 24.18 24.03 24.05 24.04 23.80 23.71
7/9/2021 14:00 to 13:10 24.10 23.66 23.49 23.37 23.20 23.63
7/9/2021 13:00 to 12:10 23.53 23.76 24.07 24.05 24.16 24.03
7/9/2021 12:00 to 11:10 24.03 24.02 23.91 23.88 23.82 23.82
7/9/2021 11:00 to 10:10 23.85 23.86 24.03 23.87 23.91 23.93
7/9/2021 10:00 to 9:10 23.86 24.01 24.04 23.93 23.93 23.90
7/9/2021 09:00 to 8:10 24.08 23.90 23.93 24.08 24.04 24.02
7/9/2021 08:00 to 7:10 23.96 24.05 24.10 24.08 24.04 24.06
7/9/2021 07:00 to 6:10 24.01 24.02 24.00 24.09 24.04 24.04
7/9/2021 06:00 to 5:10 24.04 23.99 24.17 24.05 24.09 24.16
7/9/2021 05:00 to 4:10 24.03 24.01 23.97 24.11 24.06 24.04
7/9/2021 04:00 to 3:10 24.06 24.13 24.08 24.19 24.16 24.09
7/9/2021 03:00 to 2:10 24.07 24.08 24.10 24.31 24.19 24.12
7/9/2021 02:00 to 1:10 24.11 24.25 24.17 24.20 24.15 24.31
7/9/2021 01:00 to 0:10 24.25 24.27 24.20 24.29 24.35 24.41